MAD weather

Adolfo Suárez Madrid–Barajas Airport
Madrid, Madrid, Spain

Public forecast

Using degrees Celsius for public forecast. Weather courtesy of forecast.io.

METAR (pilot weather report)

Retrieved 2018/08/20 03:30 UTC (8 minutes ago):

LEMD 200330Z 00000KT CAVOK 20/09 Q1021 NOSIG

TAF (pilot weather forecast)

Forecast is more than 12 hours old.

Retrieved 2018/08/19 00:28 UTC (1 day ago):

TAF LEMD 192300Z 2000/2106 02008KT CAVOK TX34/2016Z TN18/2006Z